sensor_id;sensor_type;location;lat;lon;timestamp;P1;durP1;ratioP1;P2;durP2;ratioP2
45322;SDS011;31382;50.200;8.674;2024-02-21T00:01:24;13.75;;;2.60;;
45322;SDS011;31382;50.200;8.674;2024-02-21T00:06:25;9.88;;;2.22;;
45322;SDS011;31382;50.200;8.674;2024-02-21T00:11:27;11.15;;;3.00;;
45322;SDS011;31382;50.200;8.674;2024-02-21T00:16:29;18.27;;;2.70;;
45322;SDS011;31382;50.200;8.674;2024-02-21T00:21:31;5.38;;;2.75;;
45322;SDS011;31382;50.200;8.674;2024-02-21T00:26:32;14.07;;;3.35;;
45322;SDS011;31382;50.200;8.674;2024-02-21T00:31:34;11.50;;;2.35;;
45322;SDS011;31382;50.200;8.674;2024-02-21T00:36:35;14.45;;;2.60;;
45322;SDS011;31382;50.200;8.674;2024-02-21T00:41:37;11.45;;;2.65;;
45322;SDS011;31382;50.200;8.674;2024-02-21T00:46:38;15.18;;;3.05;;
45322;SDS011;31382;50.200;8.674;2024-02-21T00:51:40;11.57;;;2.65;;
45322;SDS011;31382;50.200;8.674;2024-02-21T00:56:42;15.02;;;3.50;;
45322;SDS011;31382;50.200;8.674;2024-02-21T01:01:44;12.00;;;2.47;;
45322;SDS011;31382;50.200;8.674;2024-02-21T01:06:46;12.00;;;2.78;;
45322;SDS011;31382;50.200;8.674;2024-02-21T01:11:47;10.75;;;3.20;;
45322;SDS011;31382;50.200;8.674;2024-02-21T01:16:48;8.40;;;3.03;;
45322;SDS011;31382;50.200;8.674;2024-02-21T01:21:50;14.38;;;3.38;;
45322;SDS011;31382;50.200;8.674;2024-02-21T01:26:52;10.48;;;3.25;;
45322;SDS011;31382;50.200;8.674;2024-02-21T01:31:53;13.63;;;2.85;;
45322;SDS011;31382;50.200;8.674;2024-02-21T01:36:55;13.00;;;3.10;;
45322;SDS011;31382;50.200;8.674;2024-02-21T01:41:56;15.73;;;4.47;;
45322;SDS011;31382;50.200;8.674;2024-02-21T01:46:57;9.93;;;3.30;;
45322;SDS011;31382;50.200;8.674;2024-02-21T01:51:59;10.80;;;2.95;;
45322;SDS011;31382;50.200;8.674;2024-02-21T01:57:02;10.77;;;2.90;;
45322;SDS011;31382;50.200;8.674;2024-02-21T02:02:04;17.08;;;4.38;;
45322;SDS011;31382;50.200;8.674;2024-02-21T02:07:06;10.25;;;3.13;;
45322;SDS011;31382;50.200;8.674;2024-02-21T02:12:08;9.85;;;3.35;;
45322;SDS011;31382;50.200;8.674;2024-02-21T02:17:10;14.43;;;4.53;;
45322;SDS011;31382;50.200;8.674;2024-02-21T02:22:13;9.68;;;3.00;;
45322;SDS011;31382;50.200;8.674;2024-02-21T02:27:20;12.48;;;3.60;;
45322;SDS011;31382;50.200;8.674;2024-02-21T02:32:24;10.43;;;2.78;;
45322;SDS011;31382;50.200;8.674;2024-02-21T02:37:25;10.20;;;3.08;;
45322;SDS011;31382;50.200;8.674;2024-02-21T02:42:26;8.15;;;2.65;;
45322;SDS011;31382;50.200;8.674;2024-02-21T02:47:28;9.23;;;3.03;;
45322;SDS011;31382;50.200;8.674;2024-02-21T02:52:29;13.45;;;2.90;;
45322;SDS011;31382;50.200;8.674;2024-02-21T02:57:31;17.42;;;3.80;;
45322;SDS011;31382;50.200;8.674;2024-02-21T03:02:33;10.48;;;2.70;;
45322;SDS011;31382;50.200;8.674;2024-02-21T03:07:34;11.13;;;2.75;;
45322;SDS011;31382;50.200;8.674;2024-02-21T03:12:35;17.63;;;3.42;;
45322;SDS011;31382;50.200;8.674;2024-02-21T03:17:37;17.67;;;3.25;;
45322;SDS011;31382;50.200;8.674;2024-02-21T03:22:39;10.07;;;3.47;;
45322;SDS011;31382;50.200;8.674;2024-02-21T03:27:42;10.88;;;2.65;;
45322;SDS011;31382;50.200;8.674;2024-02-21T03:32:44;11.75;;;2.67;;
45322;SDS011;31382;50.200;8.674;2024-02-21T03:37:45;12.70;;;3.83;;
45322;SDS011;31382;50.200;8.674;2024-02-21T03:42:47;7.93;;;3.45;;
45322;SDS011;31382;50.200;8.674;2024-02-21T03:47:48;15.57;;;2.90;;
45322;SDS011;31382;50.200;8.674;2024-02-21T03:52:50;11.45;;;2.50;;
45322;SDS011;31382;50.200;8.674;2024-02-21T03:57:51;12.90;;;2.72;;
45322;SDS011;31382;50.200;8.674;2024-02-21T04:02:53;7.95;;;2.45;;
45322;SDS011;31382;50.200;8.674;2024-02-21T04:07:54;12.50;;;2.58;;
45322;SDS011;31382;50.200;8.674;2024-02-21T04:12:56;14.18;;;3.30;;
45322;SDS011;31382;50.200;8.674;2024-02-21T04:17:57;10.65;;;3.67;;
45322;SDS011;31382;50.200;8.674;2024-02-21T04:22:59;12.30;;;2.88;;
45322;SDS011;31382;50.200;8.674;2024-02-21T04:28:00;7.82;;;3.67;;
45322;SDS011;31382;50.200;8.674;2024-02-21T04:33:02;9.35;;;3.08;;
45322;SDS011;31382;50.200;8.674;2024-02-21T04:38:05;13.75;;;3.58;;
45322;SDS011;31382;50.200;8.674;2024-02-21T04:43:06;12.48;;;3.63;;
45322;SDS011;31382;50.200;8.674;2024-02-21T04:48:08;12.70;;;3.80;;
45322;SDS011;31382;50.200;8.674;2024-02-21T04:53:10;14.98;;;4.65;;
45322;SDS011;31382;50.200;8.674;2024-02-21T04:58:11;11.13;;;4.55;;
45322;SDS011;31382;50.200;8.674;2024-02-21T05:03:13;11.48;;;5.30;;
45322;SDS011;31382;50.200;8.674;2024-02-21T05:08:15;19.45;;;4.65;;
45322;SDS011;31382;50.200;8.674;2024-02-21T05:13:16;16.38;;;4.93;;
45322;SDS011;31382;50.200;8.674;2024-02-21T05:18:18;15.13;;;4.85;;
45322;SDS011;31382;50.200;8.674;2024-02-21T05:23:21;14.15;;;4.32;;
45322;SDS011;31382;50.200;8.674;2024-02-21T05:28:23;9.35;;;5.47;;
45322;SDS011;31382;50.200;8.674;2024-02-21T05:33:25;12.65;;;4.28;;
45322;SDS011;31382;50.200;8.674;2024-02-21T05:38:27;11.98;;;4.78;;
45322;SDS011;31382;50.200;8.674;2024-02-21T05:43:29;14.40;;;4.50;;
45322;SDS011;31382;50.200;8.674;2024-02-21T05:48:31;11.55;;;4.00;;
45322;SDS011;31382;50.200;8.674;2024-02-21T05:53:38;11.82;;;3.45;;
45322;SDS011;31382;50.200;8.674;2024-02-21T05:58:42;12.55;;;3.65;;
45322;SDS011;31382;50.200;8.674;2024-02-21T06:03:43;12.98;;;3.88;;
45322;SDS011;31382;50.200;8.674;2024-02-21T06:08:45;13.73;;;3.58;;
45322;SDS011;31382;50.200;8.674;2024-02-21T06:13:47;19.75;;;4.18;;
45322;SDS011;31382;50.200;8.674;2024-02-21T06:18:48;12.48;;;3.78;;
45322;SDS011;31382;50.200;8.674;2024-02-21T06:23:54;16.65;;;3.70;;
45322;SDS011;31382;50.200;8.674;2024-02-21T06:28:55;10.73;;;3.92;;
45322;SDS011;31382;50.200;8.674;2024-02-21T06:33:59;15.05;;;3.95;;
45322;SDS011;31382;50.200;8.674;2024-02-21T06:39:03;11.02;;;4.40;;
45322;SDS011;31382;50.200;8.674;2024-02-21T06:44:09;14.40;;;4.30;;
45322;SDS011;31382;50.200;8.674;2024-02-21T06:49:10;13.63;;;3.88;;
45322;SDS011;31382;50.200;8.674;2024-02-21T06:54:19;11.77;;;4.43;;
45322;SDS011;31382;50.200;8.674;2024-02-21T06:59:20;17.02;;;4.85;;
45322;SDS011;31382;50.200;8.674;2024-02-21T07:04:22;12.55;;;3.78;;
45322;SDS011;31382;50.200;8.674;2024-02-21T07:09:24;9.10;;;3.95;;
45322;SDS011;31382;50.200;8.674;2024-02-21T07:14:25;18.88;;;5.30;;
45322;SDS011;31382;50.200;8.674;2024-02-21T07:19:29;12.45;;;4.57;;
45322;SDS011;31382;50.200;8.674;2024-02-21T07:24:31;16.17;;;4.95;;
45322;SDS011;31382;50.200;8.674;2024-02-21T07:29:33;9.65;;;4.65;;
45322;SDS011;31382;50.200;8.674;2024-02-21T07:34:35;16.38;;;5.05;;
45322;SDS011;31382;50.200;8.674;2024-02-21T07:39:36;12.25;;;5.05;;
45322;SDS011;31382;50.200;8.674;2024-02-21T07:44:40;12.05;;;4.50;;
45322;SDS011;31382;50.200;8.674;2024-02-21T07:49:45;12.65;;;5.25;;
45322;SDS011;31382;50.200;8.674;2024-02-21T07:54:47;15.88;;;5.00;;
45322;SDS011;31382;50.200;8.674;2024-02-21T07:59:48;16.40;;;6.03;;
45322;SDS011;31382;50.200;8.674;2024-02-21T08:04:50;15.80;;;5.38;;
45322;SDS011;31382;50.200;8.674;2024-02-21T08:09:51;13.82;;;5.88;;
45322;SDS011;31382;50.200;8.674;2024-02-21T08:14:53;12.85;;;5.55;;
45322;SDS011;31382;50.200;8.674;2024-02-21T08:19:54;17.52;;;7.18;;
45322;SDS011;31382;50.200;8.674;2024-02-21T08:24:56;16.02;;;6.38;;
45322;SDS011;31382;50.200;8.674;2024-02-21T08:29:57;15.25;;;5.55;;
45322;SDS011;31382;50.200;8.674;2024-02-21T08:34:59;17.40;;;7.60;;
45322;SDS011;31382;50.200;8.674;2024-02-21T08:40:00;13.95;;;5.47;;
45322;SDS011;31382;50.200;8.674;2024-02-21T08:45:09;16.23;;;5.30;;
45322;SDS011;31382;50.200;8.674;2024-02-21T08:50:11;13.93;;;5.72;;
45322;SDS011;31382;50.200;8.674;2024-02-21T08:55:27;16.67;;;5.43;;
45322;SDS011;31382;50.200;8.674;2024-02-21T09:00:28;7.82;;;3.88;;
45322;SDS011;31382;50.200;8.674;2024-02-21T09:05:30;11.93;;;4.55;;
45322;SDS011;31382;50.200;8.674;2024-02-21T09:10:32;11.50;;;5.50;;
45322;SDS011;31382;50.200;8.674;2024-02-21T09:15:33;16.75;;;6.13;;
45322;SDS011;31382;50.200;8.674;2024-02-21T09:20:35;14.95;;;5.90;;
45322;SDS011;31382;50.200;8.674;2024-02-21T09:25:37;13.05;;;4.47;;
45322;SDS011;31382;50.200;8.674;2024-02-21T09:30:38;16.80;;;4.88;;
45322;SDS011;31382;50.200;8.674;2024-02-21T09:35:40;12.75;;;4.20;;
45322;SDS011;31382;50.200;8.674;2024-02-21T09:40:41;12.35;;;4.22;;
45322;SDS011;31382;50.200;8.674;2024-02-21T09:45:44;11.40;;;4.72;;
45322;SDS011;31382;50.200;8.674;2024-02-21T09:50:47;10.77;;;3.28;;
45322;SDS011;31382;50.200;8.674;2024-02-21T09:55:50;8.30;;;2.97;;
45322;SDS011;31382;50.200;8.674;2024-02-21T10:00:52;10.30;;;3.42;;
45322;SDS011;31382;50.200;8.674;2024-02-21T10:05:53;8.07;;;2.10;;
45322;SDS011;31382;50.200;8.674;2024-02-21T10:10:55;5.88;;;2.78;;
45322;SDS011;31382;50.200;8.674;2024-02-21T10:16:09;6.68;;;2.20;;
45322;SDS011;31382;50.200;8.674;2024-02-21T10:21:11;7.40;;;2.53;;
45322;SDS011;31382;50.200;8.674;2024-02-21T10:26:12;8.40;;;2.40;;
45322;SDS011;31382;50.200;8.674;2024-02-21T10:31:21;8.95;;;3.05;;
45322;SDS011;31382;50.200;8.674;2024-02-21T10:36:27;10.60;;;1.90;;
45322;SDS011;31382;50.200;8.674;2024-02-21T10:41:28;8.57;;;1.52;;
45322;SDS011;31382;50.200;8.674;2024-02-21T10:46:32;8.43;;;1.85;;
45322;SDS011;31382;50.200;8.674;2024-02-21T10:51:37;7.35;;;2.00;;
45322;SDS011;31382;50.200;8.674;2024-02-21T11:01:46;6.22;;;1.52;;
45322;SDS011;31382;50.200;8.674;2024-02-21T11:06:48;8.40;;;2.00;;
45322;SDS011;31382;50.200;8.674;2024-02-21T11:11:52;7.35;;;1.42;;
45322;SDS011;31382;50.200;8.674;2024-02-21T11:16:54;4.85;;;1.40;;
45322;SDS011;31382;50.200;8.674;2024-02-21T11:21:57;7.38;;;2.05;;
45322;SDS011;31382;50.200;8.674;2024-02-21T11:27:20;11.63;;;1.33;;
45322;SDS011;31382;50.200;8.674;2024-02-21T11:32:22;5.85;;;1.63;;
45322;SDS011;31382;50.200;8.674;2024-02-21T11:37:25;6.07;;;1.40;;
45322;SDS011;31382;50.200;8.674;2024-02-21T11:42:29;6.18;;;1.83;;
45322;SDS011;31382;50.200;8.674;2024-02-21T11:47:31;7.15;;;1.58;;
45322;SDS011;31382;50.200;8.674;2024-02-21T11:52:33;6.18;;;2.13;;
45322;SDS011;31382;50.200;8.674;2024-02-21T11:57:34;6.47;;;1.50;;
45322;SDS011;31382;50.200;8.674;2024-02-21T12:02:37;6.85;;;1.70;;
45322;SDS011;31382;50.200;8.674;2024-02-21T12:07:38;7.03;;;2.28;;
45322;SDS011;31382;50.200;8.674;2024-02-21T12:12:41;5.97;;;1.70;;
45322;SDS011;31382;50.200;8.674;2024-02-21T12:17:43;11.23;;;2.03;;
45322;SDS011;31382;50.200;8.674;2024-02-21T12:22:45;5.80;;;1.55;;
45322;SDS011;31382;50.200;8.674;2024-02-21T12:27:46;6.07;;;1.52;;
45322;SDS011;31382;50.200;8.674;2024-02-21T12:32:48;4.45;;;1.33;;
45322;SDS011;31382;50.200;8.674;2024-02-21T12:37:50;6.63;;;1.70;;
45322;SDS011;31382;50.200;8.674;2024-02-21T12:42:51;8.77;;;1.65;;
45322;SDS011;31382;50.200;8.674;2024-02-21T12:47:53;9.27;;;2.20;;
45322;SDS011;31382;50.200;8.674;2024-02-21T12:52:55;7.82;;;1.70;;
45322;SDS011;31382;50.200;8.674;2024-02-21T12:57:56;7.47;;;1.70;;
45322;SDS011;31382;50.200;8.674;2024-02-21T13:03:04;6.22;;;1.27;;
45322;SDS011;31382;50.200;8.674;2024-02-21T13:08:06;11.93;;;1.70;;
45322;SDS011;31382;50.200;8.674;2024-02-21T13:13:08;8.75;;;1.50;;
45322;SDS011;31382;50.200;8.674;2024-02-21T13:18:09;5.68;;;2.35;;
45322;SDS011;31382;50.200;8.674;2024-02-21T13:23:11;7.95;;;1.75;;
45322;SDS011;31382;50.200;8.674;2024-02-21T13:28:14;8.18;;;2.63;;
45322;SDS011;31382;50.200;8.674;2024-02-21T13:33:17;9.18;;;1.35;;
45322;SDS011;31382;50.200;8.674;2024-02-21T13:38:19;4.45;;;1.00;;
45322;SDS011;31382;50.200;8.674;2024-02-21T13:43:20;7.50;;;1.40;;
45322;SDS011;31382;50.200;8.674;2024-02-21T13:48:22;4.47;;;1.00;;
45322;SDS011;31382;50.200;8.674;2024-02-21T13:53:24;4.15;;;0.82;;
45322;SDS011;31382;50.200;8.674;2024-02-21T13:58:26;6.55;;;0.98;;
45322;SDS011;31382;50.200;8.674;2024-02-21T14:03:28;6.90;;;1.17;;
45322;SDS011;31382;50.200;8.674;2024-02-21T14:08:29;8.23;;;1.20;;
45322;SDS011;31382;50.200;8.674;2024-02-21T14:13:30;3.47;;;1.08;;
45322;SDS011;31382;50.200;8.674;2024-02-21T14:18:32;9.55;;;0.90;;
45322;SDS011;31382;50.200;8.674;2024-02-21T14:23:34;10.57;;;1.58;;
45322;SDS011;31382;50.200;8.674;2024-02-21T14:28:35;5.68;;;0.90;;
45322;SDS011;31382;50.200;8.674;2024-02-21T14:33:37;5.95;;;0.93;;
45322;SDS011;31382;50.200;8.674;2024-02-21T14:38:39;7.25;;;1.27;;
45322;SDS011;31382;50.200;8.674;2024-02-21T14:43:40;6.15;;;0.90;;
45322;SDS011;31382;50.200;8.674;2024-02-21T14:48:42;7.65;;;0.70;;
45322;SDS011;31382;50.200;8.674;2024-02-21T14:53:43;3.72;;;1.00;;
45322;SDS011;31382;50.200;8.674;2024-02-21T14:58:44;2.85;;;0.55;;
45322;SDS011;31382;50.200;8.674;2024-02-21T15:03:50;4.97;;;1.05;;
45322;SDS011;31382;50.200;8.674;2024-02-21T15:08:52;8.60;;;1.45;;
45322;SDS011;31382;50.200;8.674;2024-02-21T15:13:54;4.28;;;0.63;;
45322;SDS011;31382;50.200;8.674;2024-02-21T15:18:55;2.65;;;0.55;;
45322;SDS011;31382;50.200;8.674;2024-02-21T15:23:57;3.72;;;1.05;;
45322;SDS011;31382;50.200;8.674;2024-02-21T15:28:59;5.32;;;0.80;;
45322;SDS011;31382;50.200;8.674;2024-02-21T15:34:01;4.53;;;1.92;;
45322;SDS011;31382;50.200;8.674;2024-02-21T15:39:02;6.20;;;1.63;;
45322;SDS011;31382;50.200;8.674;2024-02-21T15:44:04;3.10;;;1.00;;
45322;SDS011;31382;50.200;8.674;2024-02-21T15:49:06;7.80;;;1.50;;
45322;SDS011;31382;50.200;8.674;2024-02-21T15:54:09;9.38;;;0.82;;
45322;SDS011;31382;50.200;8.674;2024-02-21T15:59:10;11.27;;;2.65;;
45322;SDS011;31382;50.200;8.674;2024-02-21T16:04:13;8.00;;;1.30;;
45322;SDS011;31382;50.200;8.674;2024-02-21T16:09:17;5.43;;;1.10;;
45322;SDS011;31382;50.200;8.674;2024-02-21T16:14:18;6.60;;;1.92;;
45322;SDS011;31382;50.200;8.674;2024-02-21T16:19:20;6.78;;;1.25;;
45322;SDS011;31382;50.200;8.674;2024-02-21T16:24:21;4.40;;;1.13;;
45322;SDS011;31382;50.200;8.674;2024-02-21T16:29:23;5.80;;;1.10;;
45322;SDS011;31382;50.200;8.674;2024-02-21T16:34:24;7.28;;;1.75;;
45322;SDS011;31382;50.200;8.674;2024-02-21T16:39:26;3.15;;;0.80;;
45322;SDS011;31382;50.200;8.674;2024-02-21T16:44:27;7.90;;;1.13;;
45322;SDS011;31382;50.200;8.674;2024-02-21T16:49:29;8.88;;;1.00;;
45322;SDS011;31382;50.200;8.674;2024-02-21T16:54:34;9.32;;;2.00;;
45322;SDS011;31382;50.200;8.674;2024-02-21T16:59:35;8.25;;;1.05;;
45322;SDS011;31382;50.200;8.674;2024-02-21T17:04:38;11.00;;;2.63;;
45322;SDS011;31382;50.200;8.674;2024-02-21T17:09:39;7.43;;;1.52;;
45322;SDS011;31382;50.200;8.674;2024-02-21T17:14:41;6.47;;;1.20;;
45322;SDS011;31382;50.200;8.674;2024-02-21T17:19:45;7.18;;;1.40;;
45322;SDS011;31382;50.200;8.674;2024-02-21T17:24:47;13.43;;;2.58;;
45322;SDS011;31382;50.200;8.674;2024-02-21T17:29:48;6.97;;;1.90;;
45322;SDS011;31382;50.200;8.674;2024-02-21T17:34:50;9.07;;;2.88;;
45322;SDS011;31382;50.200;8.674;2024-02-21T17:39:52;6.15;;;1.55;;
45322;SDS011;31382;50.200;8.674;2024-02-21T17:44:54;7.72;;;2.53;;
45322;SDS011;31382;50.200;8.674;2024-02-21T17:49:56;7.03;;;1.70;;
45322;SDS011;31382;50.200;8.674;2024-02-21T17:54:57;5.05;;;1.20;;
45322;SDS011;31382;50.200;8.674;2024-02-21T17:59:59;9.10;;;1.92;;
45322;SDS011;31382;50.200;8.674;2024-02-21T18:05:03;6.03;;;1.85;;
45322;SDS011;31382;50.200;8.674;2024-02-21T18:10:05;6.47;;;2.25;;
45322;SDS011;31382;50.200;8.674;2024-02-21T18:15:07;3.65;;;1.00;;
45322;SDS011;31382;50.200;8.674;2024-02-21T18:20:09;5.45;;;1.15;;
45322;SDS011;31382;50.200;8.674;2024-02-21T18:25:11;6.15;;;1.25;;
45322;SDS011;31382;50.200;8.674;2024-02-21T18:30:12;6.97;;;1.25;;
45322;SDS011;31382;50.200;8.674;2024-02-21T18:35:16;4.53;;;1.33;;
45322;SDS011;31382;50.200;8.674;2024-02-21T18:40:18;6.78;;;1.88;;
45322;SDS011;31382;50.200;8.674;2024-02-21T18:45:19;5.75;;;1.00;;
45322;SDS011;31382;50.200;8.674;2024-02-21T18:50:21;5.53;;;1.38;;
45322;SDS011;31382;50.200;8.674;2024-02-21T18:55:23;4.70;;;1.13;;
45322;SDS011;31382;50.200;8.674;2024-02-21T19:00:25;5.97;;;1.15;;
45322;SDS011;31382;50.200;8.674;2024-02-21T19:05:26;8.05;;;1.23;;
45322;SDS011;31382;50.200;8.674;2024-02-21T19:10:33;4.95;;;1.02;;
45322;SDS011;31382;50.200;8.674;2024-02-21T19:15:40;6.88;;;1.23;;
45322;SDS011;31382;50.200;8.674;2024-02-21T19:20:50;9.38;;;1.80;;
45322;SDS011;31382;50.200;8.674;2024-02-21T19:25:52;4.43;;;1.55;;
45322;SDS011;31382;50.200;8.674;2024-02-21T19:30:54;6.68;;;1.98;;
45322;SDS011;31382;50.200;8.674;2024-02-21T19:35:55;5.70;;;1.23;;
45322;SDS011;31382;50.200;8.674;2024-02-21T19:40:57;5.30;;;1.15;;
45322;SDS011;31382;50.200;8.674;2024-02-21T19:45:59;8.52;;;1.35;;
45322;SDS011;31382;50.200;8.674;2024-02-21T19:51:01;4.80;;;0.90;;
45322;SDS011;31382;50.200;8.674;2024-02-21T19:56:05;4.07;;;1.13;;
45322;SDS011;31382;50.200;8.674;2024-02-21T20:01:08;5.13;;;1.20;;
45322;SDS011;31382;50.200;8.674;2024-02-21T20:06:09;6.15;;;1.25;;
45322;SDS011;31382;50.200;8.674;2024-02-21T20:11:11;4.00;;;1.10;;
45322;SDS011;31382;50.200;8.674;2024-02-21T20:16:12;3.58;;;1.23;;
45322;SDS011;31382;50.200;8.674;2024-02-21T20:21:14;4.85;;;1.25;;
45322;SDS011;31382;50.200;8.674;2024-02-21T20:26:15;7.57;;;1.73;;
45322;SDS011;31382;50.200;8.674;2024-02-21T20:31:16;5.13;;;1.23;;
45322;SDS011;31382;50.200;8.674;2024-02-21T20:36:21;4.57;;;1.30;;
45322;SDS011;31382;50.200;8.674;2024-02-21T20:41:23;5.93;;;1.58;;
45322;SDS011;31382;50.200;8.674;2024-02-21T20:46:25;5.82;;;1.52;;
45322;SDS011;31382;50.200;8.674;2024-02-21T20:51:27;6.00;;;1.98;;
45322;SDS011;31382;50.200;8.674;2024-02-21T20:56:28;4.65;;;1.35;;
45322;SDS011;31382;50.200;8.674;2024-02-21T21:01:30;4.05;;;1.65;;
45322;SDS011;31382;50.200;8.674;2024-02-21T21:06:33;4.70;;;1.30;;
45322;SDS011;31382;50.200;8.674;2024-02-21T21:11:35;4.80;;;1.13;;
45322;SDS011;31382;50.200;8.674;2024-02-21T21:16:46;6.65;;;1.08;;
45322;SDS011;31382;50.200;8.674;2024-02-21T21:21:48;5.18;;;1.15;;
45322;SDS011;31382;50.200;8.674;2024-02-21T21:26:51;6.88;;;1.63;;
45322;SDS011;31382;50.200;8.674;2024-02-21T21:31:53;6.63;;;1.85;;
45322;SDS011;31382;50.200;8.674;2024-02-21T21:36:55;5.85;;;1.67;;
45322;SDS011;31382;50.200;8.674;2024-02-21T21:41:56;6.75;;;2.35;;
45322;SDS011;31382;50.200;8.674;2024-02-21T21:46:58;3.85;;;2.05;;
45322;SDS011;31382;50.200;8.674;2024-02-21T21:51:59;9.02;;;2.17;;
45322;SDS011;31382;50.200;8.674;2024-02-21T21:57:16;5.78;;;2.50;;
45322;SDS011;31382;50.200;8.674;2024-02-21T22:02:18;6.65;;;2.65;;
45322;SDS011;31382;50.200;8.674;2024-02-21T22:07:19;9.32;;;2.67;;
45322;SDS011;31382;50.200;8.674;2024-02-21T22:12:21;5.15;;;2.13;;
45322;SDS011;31382;50.200;8.674;2024-02-21T22:17:22;7.90;;;2.85;;
45322;SDS011;31382;50.200;8.674;2024-02-21T22:22:24;8.00;;;2.55;;
45322;SDS011;31382;50.200;8.674;2024-02-21T22:27:25;9.27;;;3.20;;
45322;SDS011;31382;50.200;8.674;2024-02-21T22:32:28;11.10;;;3.40;;
45322;SDS011;31382;50.200;8.674;2024-02-21T22:37:30;8.02;;;2.28;;
45322;SDS011;31382;50.200;8.674;2024-02-21T22:42:31;8.52;;;2.75;;
45322;SDS011;31382;50.200;8.674;2024-02-21T22:47:33;9.48;;;2.75;;
45322;SDS011;31382;50.200;8.674;2024-02-21T22:52:34;5.45;;;2.17;;
45322;SDS011;31382;50.200;8.674;2024-02-21T22:57:36;7.85;;;2.58;;
45322;SDS011;31382;50.200;8.674;2024-02-21T23:02:44;7.82;;;3.05;;
45322;SDS011;31382;50.200;8.674;2024-02-21T23:07:45;11.18;;;3.95;;
45322;SDS011;31382;50.200;8.674;2024-02-21T23:12:51;8.93;;;2.28;;
45322;SDS011;31382;50.200;8.674;2024-02-21T23:17:53;6.90;;;2.08;;
45322;SDS011;31382;50.200;8.674;2024-02-21T23:22:56;4.60;;;1.70;;
45322;SDS011;31382;50.200;8.674;2024-02-21T23:27:57;3.90;;;1.50;;
45322;SDS011;31382;50.200;8.674;2024-02-21T23:32:59;3.53;;;1.50;;
45322;SDS011;31382;50.200;8.674;2024-02-21T23:38:01;3.38;;;1.23;;
45322;SDS011;31382;50.200;8.674;2024-02-21T23:43:06;4.47;;;1.27;;
45322;SDS011;31382;50.200;8.674;2024-02-21T23:48:07;2.50;;;1.00;;
45322;SDS011;31382;50.200;8.674;2024-02-21T23:53:10;3.05;;;1.10;;
45322;SDS011;31382;50.200;8.674;2024-02-21T23:58:11;2.28;;;0.80;;
